sensor_id;sensor_type;location;lat;lon;timestamp;P1;durP1;ratioP1;P2;durP2;ratioP2
59271;SDS011;45043;51.068;7.026;2023-03-14T00:02:28;3.63;;;2.00;;
59271;SDS011;45043;51.068;7.026;2023-03-14T00:05:28;4.30;;;2.00;;
59271;SDS011;45043;51.068;7.026;2023-03-14T00:08:29;5.63;;;2.07;;
59271;SDS011;45043;51.068;7.026;2023-03-14T00:11:29;4.90;;;2.30;;
59271;SDS011;45043;51.068;7.026;2023-03-14T00:14:30;2.50;;;1.83;;
59271;SDS011;45043;51.068;7.026;2023-03-14T00:17:31;4.87;;;1.90;;
59271;SDS011;45043;51.068;7.026;2023-03-14T00:20:31;4.87;;;1.80;;
59271;SDS011;45043;51.068;7.026;2023-03-14T00:23:32;4.17;;;1.80;;
59271;SDS011;45043;51.068;7.026;2023-03-14T00:26:34;5.80;;;1.83;;
59271;SDS011;45043;51.068;7.026;2023-03-14T00:29:35;5.87;;;1.90;;
59271;SDS011;45043;51.068;7.026;2023-03-14T00:32:35;3.93;;;2.00;;
59271;SDS011;45043;51.068;7.026;2023-03-14T00:35:36;6.17;;;2.33;;
59271;SDS011;45043;51.068;7.026;2023-03-14T00:38:37;3.70;;;1.67;;
59271;SDS011;45043;51.068;7.026;2023-03-14T00:41:38;6.33;;;2.10;;
59271;SDS011;45043;51.068;7.026;2023-03-14T00:44:39;7.03;;;2.70;;
59271;SDS011;45043;51.068;7.026;2023-03-14T00:47:40;4.47;;;1.87;;
59271;SDS011;45043;51.068;7.026;2023-03-14T00:50:45;6.50;;;2.60;;
59271;SDS011;45043;51.068;7.026;2023-03-14T00:53:49;5.20;;;2.10;;
59271;SDS011;45043;51.068;7.026;2023-03-14T00:56:49;4.53;;;2.23;;
59271;SDS011;45043;51.068;7.026;2023-03-14T00:59:50;5.27;;;2.20;;
59271;SDS011;45043;51.068;7.026;2023-03-14T01:02:51;5.07;;;2.23;;
59271;SDS011;45043;51.068;7.026;2023-03-14T01:05:51;3.57;;;1.90;;
59271;SDS011;45043;51.068;7.026;2023-03-14T01:08:52;2.83;;;1.37;;
59271;SDS011;45043;51.068;7.026;2023-03-14T01:11:54;5.97;;;1.90;;
59271;SDS011;45043;51.068;7.026;2023-03-14T01:14:54;4.63;;;1.27;;
59271;SDS011;45043;51.068;7.026;2023-03-14T01:17:55;4.60;;;1.60;;
59271;SDS011;45043;51.068;7.026;2023-03-14T01:20:57;4.43;;;1.30;;
59271;SDS011;45043;51.068;7.026;2023-03-14T01:23:58;5.07;;;1.40;;
59271;SDS011;45043;51.068;7.026;2023-03-14T01:27:00;3.13;;;1.50;;
59271;SDS011;45043;51.068;7.026;2023-03-14T01:30:02;4.60;;;1.80;;
59271;SDS011;45043;51.068;7.026;2023-03-14T01:33:04;3.80;;;1.97;;
59271;SDS011;45043;51.068;7.026;2023-03-14T01:36:05;3.73;;;1.73;;
59271;SDS011;45043;51.068;7.026;2023-03-14T01:39:06;6.43;;;1.80;;
59271;SDS011;45043;51.068;7.026;2023-03-14T01:42:08;5.57;;;2.37;;
59271;SDS011;45043;51.068;7.026;2023-03-14T01:48:49;4.57;;;1.50;;
59271;SDS011;45043;51.068;7.026;2023-03-14T01:52:34;5.00;;;2.07;;
59271;SDS011;45043;51.068;7.026;2023-03-14T01:55:38;5.10;;;2.33;;
59271;SDS011;45043;51.068;7.026;2023-03-14T01:58:39;5.40;;;2.13;;
59271;SDS011;45043;51.068;7.026;2023-03-14T02:01:44;5.73;;;2.03;;
59271;SDS011;45043;51.068;7.026;2023-03-14T02:04:47;4.83;;;1.93;;
59271;SDS011;45043;51.068;7.026;2023-03-14T02:07:52;4.47;;;1.50;;
59271;SDS011;45043;51.068;7.026;2023-03-14T02:10:57;5.60;;;2.60;;
59271;SDS011;45043;51.068;7.026;2023-03-14T02:14:14;6.73;;;1.80;;
59271;SDS011;45043;51.068;7.026;2023-03-14T02:17:49;3.50;;;1.90;;
59271;SDS011;45043;51.068;7.026;2023-03-14T02:21:01;5.30;;;2.03;;
59271;SDS011;45043;51.068;7.026;2023-03-14T02:27:31;4.10;;;1.80;;
59271;SDS011;45043;51.068;7.026;2023-03-14T02:30:33;4.20;;;2.00;;
59271;SDS011;45043;51.068;7.026;2023-03-14T02:33:35;5.40;;;1.90;;
59271;SDS011;45043;51.068;7.026;2023-03-14T02:36:38;3.90;;;2.03;;
59271;SDS011;45043;51.068;7.026;2023-03-14T02:39:40;4.23;;;1.63;;
59271;SDS011;45043;51.068;7.026;2023-03-14T02:42:44;3.57;;;1.43;;
59271;SDS011;45043;51.068;7.026;2023-03-14T02:45:46;4.23;;;1.60;;
59271;SDS011;45043;51.068;7.026;2023-03-14T02:48:58;5.93;;;1.87;;
59271;SDS011;45043;51.068;7.026;2023-03-14T02:52:07;4.30;;;1.60;;
59271;SDS011;45043;51.068;7.026;2023-03-14T02:55:07;3.90;;;1.63;;
59271;SDS011;45043;51.068;7.026;2023-03-14T02:58:10;4.93;;;1.90;;
59271;SDS011;45043;51.068;7.026;2023-03-14T03:01:11;3.40;;;1.47;;
59271;SDS011;45043;51.068;7.026;2023-03-14T03:04:12;3.10;;;1.67;;
59271;SDS011;45043;51.068;7.026;2023-03-14T03:07:12;5.10;;;1.63;;
59271;SDS011;45043;51.068;7.026;2023-03-14T03:10:13;3.70;;;1.60;;
59271;SDS011;45043;51.068;7.026;2023-03-14T03:13:14;2.90;;;1.37;;
59271;SDS011;45043;51.068;7.026;2023-03-14T03:16:16;4.73;;;1.70;;
59271;SDS011;45043;51.068;7.026;2023-03-14T03:19:17;3.17;;;1.57;;
59271;SDS011;45043;51.068;7.026;2023-03-14T03:22:17;3.60;;;1.40;;
59271;SDS011;45043;51.068;7.026;2023-03-14T03:25:18;2.80;;;1.87;;
59271;SDS011;45043;51.068;7.026;2023-03-14T03:28:19;4.30;;;2.13;;
59271;SDS011;45043;51.068;7.026;2023-03-14T03:31:21;4.23;;;1.83;;
59271;SDS011;45043;51.068;7.026;2023-03-14T03:34:22;2.57;;;1.50;;
59271;SDS011;45043;51.068;7.026;2023-03-14T03:37:25;4.00;;;1.60;;
59271;SDS011;45043;51.068;7.026;2023-03-14T03:40:26;5.53;;;1.70;;
59271;SDS011;45043;51.068;7.026;2023-03-14T03:43:27;4.90;;;1.80;;
59271;SDS011;45043;51.068;7.026;2023-03-14T03:46:27;4.63;;;1.90;;
59271;SDS011;45043;51.068;7.026;2023-03-14T03:49:29;4.23;;;1.73;;
59271;SDS011;45043;51.068;7.026;2023-03-14T03:52:33;6.83;;;2.27;;
59271;SDS011;45043;51.068;7.026;2023-03-14T03:55:34;6.57;;;2.20;;
59271;SDS011;45043;51.068;7.026;2023-03-14T03:58:34;4.63;;;1.90;;
59271;SDS011;45043;51.068;7.026;2023-03-14T04:01:36;7.90;;;2.83;;
59271;SDS011;45043;51.068;7.026;2023-03-14T04:04:37;8.47;;;2.40;;
59271;SDS011;45043;51.068;7.026;2023-03-14T04:07:38;5.40;;;2.23;;
59271;SDS011;45043;51.068;7.026;2023-03-14T04:10:40;7.17;;;2.20;;
59271;SDS011;45043;51.068;7.026;2023-03-14T04:13:53;9.53;;;2.57;;
59271;SDS011;45043;51.068;7.026;2023-03-14T04:16:54;9.40;;;2.07;;
59271;SDS011;45043;51.068;7.026;2023-03-14T04:19:54;6.87;;;2.20;;
59271;SDS011;45043;51.068;7.026;2023-03-14T04:22:59;6.27;;;2.13;;
59271;SDS011;45043;51.068;7.026;2023-03-14T04:26:00;7.07;;;2.30;;
59271;SDS011;45043;51.068;7.026;2023-03-14T04:29:04;6.57;;;2.17;;
59271;SDS011;45043;51.068;7.026;2023-03-14T04:32:05;6.00;;;2.10;;
59271;SDS011;45043;51.068;7.026;2023-03-14T04:35:06;9.20;;;2.27;;
59271;SDS011;45043;51.068;7.026;2023-03-14T04:38:06;4.13;;;1.90;;
59271;SDS011;45043;51.068;7.026;2023-03-14T04:41:08;7.67;;;2.47;;
59271;SDS011;45043;51.068;7.026;2023-03-14T04:44:09;4.67;;;2.10;;
59271;SDS011;45043;51.068;7.026;2023-03-14T04:47:10;5.80;;;2.20;;
59271;SDS011;45043;51.068;7.026;2023-03-14T04:50:12;6.37;;;2.23;;
59271;SDS011;45043;51.068;7.026;2023-03-14T04:53:14;5.63;;;2.20;;
59271;SDS011;45043;51.068;7.026;2023-03-14T04:56:17;5.63;;;2.10;;
59271;SDS011;45043;51.068;7.026;2023-03-14T04:59:17;5.83;;;2.10;;
59271;SDS011;45043;51.068;7.026;2023-03-14T05:02:18;6.10;;;2.20;;
59271;SDS011;45043;51.068;7.026;2023-03-14T05:05:37;8.00;;;2.10;;
59271;SDS011;45043;51.068;7.026;2023-03-14T05:08:47;7.07;;;2.20;;
59271;SDS011;45043;51.068;7.026;2023-03-14T05:12:08;5.07;;;1.60;;
59271;SDS011;45043;51.068;7.026;2023-03-14T05:15:27;3.97;;;1.70;;
59271;SDS011;45043;51.068;7.026;2023-03-14T05:18:53;5.73;;;2.00;;
59271;SDS011;45043;51.068;7.026;2023-03-14T05:22:13;4.13;;;1.70;;
59271;SDS011;45043;51.068;7.026;2023-03-14T05:25:42;4.10;;;1.67;;
59271;SDS011;45043;51.068;7.026;2023-03-14T05:29:10;3.23;;;1.40;;
59271;SDS011;45043;51.068;7.026;2023-03-14T05:32:19;5.30;;;1.90;;
59271;SDS011;45043;51.068;7.026;2023-03-14T05:35:28;2.73;;;1.60;;
59271;SDS011;45043;51.068;7.026;2023-03-14T05:38:46;4.40;;;1.27;;
59271;SDS011;45043;51.068;7.026;2023-03-14T05:42:05;2.70;;;1.67;;
59271;SDS011;45043;51.068;7.026;2023-03-14T05:45:28;4.80;;;1.70;;
59271;SDS011;45043;51.068;7.026;2023-03-14T05:48:58;3.50;;;1.50;;
59271;SDS011;45043;51.068;7.026;2023-03-14T05:52:12;2.07;;;1.00;;
59271;SDS011;45043;51.068;7.026;2023-03-14T05:55:30;2.07;;;1.27;;
59271;SDS011;45043;51.068;7.026;2023-03-14T05:58:49;2.97;;;1.33;;
59271;SDS011;45043;51.068;7.026;2023-03-14T06:02:02;1.00;;;0.90;;
59271;SDS011;45043;51.068;7.026;2023-03-14T06:05:12;1.63;;;1.17;;
59271;SDS011;45043;51.068;7.026;2023-03-14T06:08:13;4.90;;;0.90;;
59271;SDS011;45043;51.068;7.026;2023-03-14T06:11:14;1.33;;;0.77;;
59271;SDS011;45043;51.068;7.026;2023-03-14T06:14:15;1.53;;;1.03;;
59271;SDS011;45043;51.068;7.026;2023-03-14T06:17:19;1.33;;;0.60;;
59271;SDS011;45043;51.068;7.026;2023-03-14T06:20:26;1.10;;;0.70;;
59271;SDS011;45043;51.068;7.026;2023-03-14T06:23:27;1.80;;;0.80;;
59271;SDS011;45043;51.068;7.026;2023-03-14T06:26:30;0.70;;;0.60;;
59271;SDS011;45043;51.068;7.026;2023-03-14T06:29:31;0.83;;;0.80;;
59271;SDS011;45043;51.068;7.026;2023-03-14T06:32:32;0.80;;;0.70;;
59271;SDS011;45043;51.068;7.026;2023-03-14T06:35:36;0.70;;;0.70;;
59271;SDS011;45043;51.068;7.026;2023-03-14T06:38:37;2.20;;;0.80;;
59271;SDS011;45043;51.068;7.026;2023-03-14T06:41:37;2.00;;;1.03;;
59271;SDS011;45043;51.068;7.026;2023-03-14T06:44:38;2.10;;;1.00;;
59271;SDS011;45043;51.068;7.026;2023-03-14T06:47:39;1.83;;;1.10;;
59271;SDS011;45043;51.068;7.026;2023-03-14T06:50:41;1.20;;;0.70;;
59271;SDS011;45043;51.068;7.026;2023-03-14T06:53:49;0.83;;;0.80;;
59271;SDS011;45043;51.068;7.026;2023-03-14T06:56:55;2.17;;;1.00;;
59271;SDS011;45043;51.068;7.026;2023-03-14T06:59:56;2.70;;;1.13;;
59271;SDS011;45043;51.068;7.026;2023-03-14T07:02:56;1.57;;;1.00;;
59271;SDS011;45043;51.068;7.026;2023-03-14T07:06:06;2.87;;;1.10;;
59271;SDS011;45043;51.068;7.026;2023-03-14T07:09:07;1.40;;;1.30;;
59271;SDS011;45043;51.068;7.026;2023-03-14T07:12:15;2.13;;;1.43;;
59271;SDS011;45043;51.068;7.026;2023-03-14T07:15:16;0.87;;;0.83;;
59271;SDS011;45043;51.068;7.026;2023-03-14T07:18:17;1.20;;;1.10;;
59271;SDS011;45043;51.068;7.026;2023-03-14T07:21:18;2.10;;;1.40;;
59271;SDS011;45043;51.068;7.026;2023-03-14T07:24:19;2.83;;;1.30;;
59271;SDS011;45043;51.068;7.026;2023-03-14T07:27:19;2.47;;;1.10;;
59271;SDS011;45043;51.068;7.026;2023-03-14T07:30:22;1.37;;;1.03;;
59271;SDS011;45043;51.068;7.026;2023-03-14T07:33:23;2.03;;;1.30;;
59271;SDS011;45043;51.068;7.026;2023-03-14T07:36:24;7.70;;;1.50;;
59271;SDS011;45043;51.068;7.026;2023-03-14T07:39:25;1.80;;;0.97;;
59271;SDS011;45043;51.068;7.026;2023-03-14T07:42:54;2.03;;;1.17;;
59271;SDS011;45043;51.068;7.026;2023-03-14T07:46:11;1.50;;;1.07;;
59271;SDS011;45043;51.068;7.026;2023-03-14T07:49:11;2.07;;;1.30;;
59271;SDS011;45043;51.068;7.026;2023-03-14T07:52:12;1.20;;;0.90;;
59271;SDS011;45043;51.068;7.026;2023-03-14T07:55:12;1.47;;;0.70;;
59271;SDS011;45043;51.068;7.026;2023-03-14T07:58:14;1.53;;;0.90;;
59271;SDS011;45043;51.068;7.026;2023-03-14T08:01:14;0.60;;;0.60;;
59271;SDS011;45043;51.068;7.026;2023-03-14T08:04:15;0.60;;;0.60;;
59271;SDS011;45043;51.068;7.026;2023-03-14T08:07:16;1.20;;;0.90;;
59271;SDS011;45043;51.068;7.026;2023-03-14T08:10:17;1.13;;;0.87;;
59271;SDS011;45043;51.068;7.026;2023-03-14T08:13:23;0.87;;;0.87;;
59271;SDS011;45043;51.068;7.026;2023-03-14T08:16:25;1.53;;;1.00;;
59271;SDS011;45043;51.068;7.026;2023-03-14T08:19:26;2.60;;;2.33;;
59271;SDS011;45043;51.068;7.026;2023-03-14T08:22:26;0.90;;;0.90;;
59271;SDS011;45043;51.068;7.026;2023-03-14T08:25:27;1.43;;;0.80;;
59271;SDS011;45043;51.068;7.026;2023-03-14T08:28:28;1.00;;;0.73;;
59271;SDS011;45043;51.068;7.026;2023-03-14T08:31:31;1.40;;;0.90;;
59271;SDS011;45043;51.068;7.026;2023-03-14T08:34:32;1.13;;;0.90;;
59271;SDS011;45043;51.068;7.026;2023-03-14T08:37:34;0.63;;;0.63;;
59271;SDS011;45043;51.068;7.026;2023-03-14T08:40:35;1.00;;;0.77;;
59271;SDS011;45043;51.068;7.026;2023-03-14T08:43:35;0.80;;;0.80;;
59271;SDS011;45043;51.068;7.026;2023-03-14T08:46:36;0.80;;;0.70;;
59271;SDS011;45043;51.068;7.026;2023-03-14T08:49:36;2.87;;;1.37;;
59271;SDS011;45043;51.068;7.026;2023-03-14T08:52:37;5.13;;;0.83;;
59271;SDS011;45043;51.068;7.026;2023-03-14T08:55:40;1.40;;;0.87;;
59271;SDS011;45043;51.068;7.026;2023-03-14T08:58:40;0.80;;;0.80;;
59271;SDS011;45043;51.068;7.026;2023-03-14T09:01:41;1.00;;;0.87;;
59271;SDS011;45043;51.068;7.026;2023-03-14T09:04:42;0.97;;;0.70;;
59271;SDS011;45043;51.068;7.026;2023-03-14T09:07:42;1.27;;;0.87;;
59271;SDS011;45043;51.068;7.026;2023-03-14T09:10:42;1.47;;;0.87;;
59271;SDS011;45043;51.068;7.026;2023-03-14T09:13:46;2.33;;;1.17;;
59271;SDS011;45043;51.068;7.026;2023-03-14T09:16:46;1.60;;;1.00;;
59271;SDS011;45043;51.068;7.026;2023-03-14T09:19:47;2.10;;;1.00;;
59271;SDS011;45043;51.068;7.026;2023-03-14T09:22:47;6.83;;;1.50;;
59271;SDS011;45043;51.068;7.026;2023-03-14T09:25:48;2.63;;;1.40;;
59271;SDS011;45043;51.068;7.026;2023-03-14T09:28:48;4.80;;;1.30;;
59271;SDS011;45043;51.068;7.026;2023-03-14T09:31:49;1.87;;;1.07;;
59271;SDS011;45043;51.068;7.026;2023-03-14T09:34:49;1.83;;;1.13;;
59271;SDS011;45043;51.068;7.026;2023-03-14T09:37:50;2.63;;;1.20;;
59271;SDS011;45043;51.068;7.026;2023-03-14T09:40:50;1.47;;;0.90;;
59271;SDS011;45043;51.068;7.026;2023-03-14T09:43:54;4.00;;;1.10;;
59271;SDS011;45043;51.068;7.026;2023-03-14T09:47:03;1.90;;;1.07;;
59271;SDS011;45043;51.068;7.026;2023-03-14T09:50:10;0.70;;;0.70;;
59271;SDS011;45043;51.068;7.026;2023-03-14T09:53:16;0.57;;;0.57;;
59271;SDS011;45043;51.068;7.026;2023-03-14T09:56:20;4.63;;;1.20;;
59271;SDS011;45043;51.068;7.026;2023-03-14T09:59:20;3.23;;;1.03;;
59271;SDS011;45043;51.068;7.026;2023-03-14T10:02:22;2.77;;;1.00;;
59271;SDS011;45043;51.068;7.026;2023-03-14T10:05:29;5.87;;;1.10;;
59271;SDS011;45043;51.068;7.026;2023-03-14T10:08:29;1.67;;;1.10;;
59271;SDS011;45043;51.068;7.026;2023-03-14T10:11:30;6.20;;;1.20;;
59271;SDS011;45043;51.068;7.026;2023-03-14T10:14:35;1.43;;;1.10;;
59271;SDS011;45043;51.068;7.026;2023-03-14T10:17:40;2.90;;;1.23;;
59271;SDS011;45043;51.068;7.026;2023-03-14T10:20:44;1.50;;;1.20;;
59271;SDS011;45043;51.068;7.026;2023-03-14T10:23:48;1.33;;;1.20;;
59271;SDS011;45043;51.068;7.026;2023-03-14T10:26:49;0.90;;;0.90;;
59271;SDS011;45043;51.068;7.026;2023-03-14T10:29:54;2.87;;;1.20;;
59271;SDS011;45043;51.068;7.026;2023-03-14T10:33:07;4.40;;;1.40;;
59271;SDS011;45043;51.068;7.026;2023-03-14T10:36:17;1.77;;;1.20;;
59271;SDS011;45043;51.068;7.026;2023-03-14T10:42:45;1.80;;;1.07;;
59271;SDS011;45043;51.068;7.026;2023-03-14T10:45:52;1.33;;;1.23;;
59271;SDS011;45043;51.068;7.026;2023-03-14T10:48:57;2.13;;;1.53;;
59271;SDS011;45043;51.068;7.026;2023-03-14T10:52:02;3.03;;;1.80;;
59271;SDS011;45043;51.068;7.026;2023-03-14T10:55:13;1.77;;;1.63;;
59271;SDS011;45043;51.068;7.026;2023-03-14T10:58:22;3.00;;;1.87;;
59271;SDS011;45043;51.068;7.026;2023-03-14T11:08:09;2.57;;;2.37;;
59271;SDS011;45043;51.068;7.026;2023-03-14T11:11:26;3.30;;;2.50;;
59271;SDS011;45043;51.068;7.026;2023-03-14T11:14:32;3.70;;;2.30;;
59271;SDS011;45043;51.068;7.026;2023-03-14T11:17:41;2.97;;;2.33;;
59271;SDS011;45043;51.068;7.026;2023-03-14T11:21:20;3.30;;;2.00;;
59271;SDS011;45043;51.068;7.026;2023-03-14T11:34:28;2.90;;;2.60;;
59271;SDS011;45043;51.068;7.026;2023-03-14T11:37:41;2.73;;;1.90;;
59271;SDS011;45043;51.068;7.026;2023-03-14T11:40:48;2.10;;;1.83;;
59271;SDS011;45043;51.068;7.026;2023-03-14T11:43:59;4.20;;;2.37;;
59271;SDS011;45043;51.068;7.026;2023-03-14T11:50:31;3.53;;;2.60;;
59271;SDS011;45043;51.068;7.026;2023-03-14T11:56:51;4.43;;;4.03;;
59271;SDS011;45043;51.068;7.026;2023-03-14T12:00:14;5.37;;;3.87;;
59271;SDS011;45043;51.068;7.026;2023-03-14T12:03:41;6.70;;;4.77;;
59271;SDS011;45043;51.068;7.026;2023-03-14T12:06:53;8.23;;;5.07;;
59271;SDS011;45043;51.068;7.026;2023-03-14T12:09:54;9.20;;;4.80;;
59271;SDS011;45043;51.068;7.026;2023-03-14T12:12:55;7.10;;;5.00;;
59271;SDS011;45043;51.068;7.026;2023-03-14T12:15:59;7.13;;;5.43;;
59271;SDS011;45043;51.068;7.026;2023-03-14T12:19:14;8.80;;;4.80;;
59271;SDS011;45043;51.068;7.026;2023-03-14T12:22:26;6.43;;;4.73;;
59271;SDS011;45043;51.068;7.026;2023-03-14T12:25:30;4.70;;;4.03;;
59271;SDS011;45043;51.068;7.026;2023-03-14T12:28:32;6.50;;;4.30;;
59271;SDS011;45043;51.068;7.026;2023-03-14T12:31:36;6.70;;;4.40;;
59271;SDS011;45043;51.068;7.026;2023-03-14T12:34:42;5.67;;;4.07;;
59271;SDS011;45043;51.068;7.026;2023-03-14T12:37:45;4.47;;;3.90;;
59271;SDS011;45043;51.068;7.026;2023-03-14T12:43:54;5.23;;;3.00;;
59271;SDS011;45043;51.068;7.026;2023-03-14T12:46:58;3.80;;;3.40;;
59271;SDS011;45043;51.068;7.026;2023-03-14T12:50:07;4.60;;;3.53;;
59271;SDS011;45043;51.068;7.026;2023-03-14T12:56:44;6.83;;;3.60;;
59271;SDS011;45043;51.068;7.026;2023-03-14T12:59:58;4.97;;;3.53;;
59271;SDS011;45043;51.068;7.026;2023-03-14T13:03:20;7.43;;;3.30;;
59271;SDS011;45043;51.068;7.026;2023-03-14T13:09:54;4.33;;;2.47;;
59271;SDS011;45043;51.068;7.026;2023-03-14T13:13:09;5.43;;;3.43;;
59271;SDS011;45043;51.068;7.026;2023-03-14T13:16:17;4.37;;;3.40;;
59271;SDS011;45043;51.068;7.026;2023-03-14T13:19:20;5.77;;;3.70;;
59271;SDS011;45043;51.068;7.026;2023-03-14T13:22:27;5.23;;;2.97;;
59271;SDS011;45043;51.068;7.026;2023-03-14T13:25:34;6.43;;;3.67;;
59271;SDS011;45043;51.068;7.026;2023-03-14T13:28:35;6.20;;;3.57;;
59271;SDS011;45043;51.068;7.026;2023-03-14T13:31:36;6.47;;;3.63;;
59271;SDS011;45043;51.068;7.026;2023-03-14T13:34:37;7.00;;;2.13;;
59271;SDS011;45043;51.068;7.026;2023-03-14T13:37:38;5.20;;;2.20;;
59271;SDS011;45043;51.068;7.026;2023-03-14T13:40:40;5.33;;;2.43;;
59271;SDS011;45043;51.068;7.026;2023-03-14T13:43:44;7.63;;;2.73;;
59271;SDS011;45043;51.068;7.026;2023-03-14T13:46:44;7.93;;;3.27;;
59271;SDS011;45043;51.068;7.026;2023-03-14T13:49:45;8.17;;;3.33;;
59271;SDS011;45043;51.068;7.026;2023-03-14T13:52:47;12.63;;;4.83;;
59271;SDS011;45043;51.068;7.026;2023-03-14T13:55:55;9.80;;;3.83;;
59271;SDS011;45043;51.068;7.026;2023-03-14T13:58:56;9.27;;;4.07;;
59271;SDS011;45043;51.068;7.026;2023-03-14T14:02:02;10.43;;;4.40;;
59271;SDS011;45043;51.068;7.026;2023-03-14T14:05:11;8.33;;;3.53;;
59271;SDS011;45043;51.068;7.026;2023-03-14T14:08:12;12.73;;;4.30;;
59271;SDS011;45043;51.068;7.026;2023-03-14T14:11:17;11.23;;;4.17;;
59271;SDS011;45043;51.068;7.026;2023-03-14T14:14:43;11.53;;;4.07;;
59271;SDS011;45043;51.068;7.026;2023-03-14T14:17:54;7.97;;;2.77;;
59271;SDS011;45043;51.068;7.026;2023-03-14T14:20:58;11.30;;;3.60;;
59271;SDS011;45043;51.068;7.026;2023-03-14T14:23:58;14.47;;;3.93;;
59271;SDS011;45043;51.068;7.026;2023-03-14T14:27:01;11.60;;;3.87;;
59271;SDS011;45043;51.068;7.026;2023-03-14T14:33:18;13.80;;;3.70;;
59271;SDS011;45043;51.068;7.026;2023-03-14T14:36:21;13.33;;;3.10;;
59271;SDS011;45043;51.068;7.026;2023-03-14T14:39:31;13.20;;;3.50;;
59271;SDS011;45043;51.068;7.026;2023-03-14T14:42:31;12.93;;;3.50;;
59271;SDS011;45043;51.068;7.026;2023-03-14T14:45:33;14.33;;;4.03;;
59271;SDS011;45043;51.068;7.026;2023-03-14T14:48:38;18.33;;;4.07;;
59271;SDS011;45043;51.068;7.026;2023-03-14T14:51:40;14.73;;;3.90;;
59271;SDS011;45043;51.068;7.026;2023-03-14T14:57:56;17.73;;;3.83;;
59271;SDS011;45043;51.068;7.026;2023-03-14T15:04:17;13.67;;;3.80;;
59271;SDS011;45043;51.068;7.026;2023-03-14T15:07:17;11.23;;;3.60;;
59271;SDS011;45043;51.068;7.026;2023-03-14T15:10:19;15.33;;;4.00;;
59271;SDS011;45043;51.068;7.026;2023-03-14T15:13:21;12.17;;;3.83;;
59271;SDS011;45043;51.068;7.026;2023-03-14T15:16:22;10.97;;;3.60;;
59271;SDS011;45043;51.068;7.026;2023-03-14T15:19:27;12.67;;;4.17;;
59271;SDS011;45043;51.068;7.026;2023-03-14T15:22:29;16.70;;;3.77;;
59271;SDS011;45043;51.068;7.026;2023-03-14T15:25:30;13.30;;;3.70;;
59271;SDS011;45043;51.068;7.026;2023-03-14T15:28:30;12.97;;;3.97;;
59271;SDS011;45043;51.068;7.026;2023-03-14T15:31:31;16.43;;;3.73;;
59271;SDS011;45043;51.068;7.026;2023-03-14T15:34:31;11.37;;;3.93;;
59271;SDS011;45043;51.068;7.026;2023-03-14T15:37:32;12.90;;;3.50;;
59271;SDS011;45043;51.068;7.026;2023-03-14T15:40:32;14.47;;;3.70;;
59271;SDS011;45043;51.068;7.026;2023-03-14T15:43:32;7.50;;;2.77;;
59271;SDS011;45043;51.068;7.026;2023-03-14T15:46:33;7.90;;;2.80;;
59271;SDS011;45043;51.068;7.026;2023-03-14T15:49:33;10.30;;;3.00;;
59271;SDS011;45043;51.068;7.026;2023-03-14T15:52:34;6.70;;;2.27;;
59271;SDS011;45043;51.068;7.026;2023-03-14T15:55:35;11.77;;;2.60;;
59271;SDS011;45043;51.068;7.026;2023-03-14T15:58:35;8.47;;;2.77;;
59271;SDS011;45043;51.068;7.026;2023-03-14T16:01:36;11.33;;;2.60;;
59271;SDS011;45043;51.068;7.026;2023-03-14T16:04:36;8.10;;;2.57;;
59271;SDS011;45043;51.068;7.026;2023-03-14T16:07:37;9.83;;;2.33;;
59271;SDS011;45043;51.068;7.026;2023-03-14T16:10:38;9.97;;;2.40;;
59271;SDS011;45043;51.068;7.026;2023-03-14T16:13:38;8.17;;;2.57;;
59271;SDS011;45043;51.068;7.026;2023-03-14T16:16:39;7.47;;;2.10;;
59271;SDS011;45043;51.068;7.026;2023-03-14T16:19:39;8.90;;;2.30;;
59271;SDS011;45043;51.068;7.026;2023-03-14T16:22:40;8.60;;;2.60;;
59271;SDS011;45043;51.068;7.026;2023-03-14T16:25:40;9.93;;;2.83;;
59271;SDS011;45043;51.068;7.026;2023-03-14T16:28:43;10.50;;;2.23;;
59271;SDS011;45043;51.068;7.026;2023-03-14T16:31:45;7.10;;;2.10;;
59271;SDS011;45043;51.068;7.026;2023-03-14T16:34:45;8.90;;;2.30;;
59271;SDS011;45043;51.068;7.026;2023-03-14T16:37:46;7.60;;;2.40;;
59271;SDS011;45043;51.068;7.026;2023-03-14T16:40:54;6.23;;;2.27;;
59271;SDS011;45043;51.068;7.026;2023-03-14T16:43:57;7.40;;;2.43;;
59271;SDS011;45043;51.068;7.026;2023-03-14T16:46:58;6.70;;;2.23;;
59271;SDS011;45043;51.068;7.026;2023-03-14T16:49:59;7.83;;;2.47;;
59271;SDS011;45043;51.068;7.026;2023-03-14T16:53:01;7.07;;;2.23;;
59271;SDS011;45043;51.068;7.026;2023-03-14T16:56:02;9.90;;;2.90;;
59271;SDS011;45043;51.068;7.026;2023-03-14T16:59:02;8.50;;;2.30;;
59271;SDS011;45043;51.068;7.026;2023-03-14T17:02:03;6.20;;;2.27;;
59271;SDS011;45043;51.068;7.026;2023-03-14T17:05:03;7.67;;;2.27;;
59271;SDS011;45043;51.068;7.026;2023-03-14T17:08:04;8.33;;;2.20;;
59271;SDS011;45043;51.068;7.026;2023-03-14T17:11:04;6.10;;;1.93;;
59271;SDS011;45043;51.068;7.026;2023-03-14T17:14:05;4.60;;;1.53;;
59271;SDS011;45043;51.068;7.026;2023-03-14T17:17:06;8.63;;;2.33;;
59271;SDS011;45043;51.068;7.026;2023-03-14T17:20:06;6.77;;;1.93;;
59271;SDS011;45043;51.068;7.026;2023-03-14T17:23:08;5.23;;;2.00;;
59271;SDS011;45043;51.068;7.026;2023-03-14T17:26:08;7.50;;;2.07;;
59271;SDS011;45043;51.068;7.026;2023-03-14T17:29:11;5.53;;;2.30;;
59271;SDS011;45043;51.068;7.026;2023-03-14T17:32:11;7.90;;;2.37;;
59271;SDS011;45043;51.068;7.026;2023-03-14T17:35:13;8.57;;;2.77;;
59271;SDS011;45043;51.068;7.026;2023-03-14T17:38:13;7.27;;;2.50;;
59271;SDS011;45043;51.068;7.026;2023-03-14T17:41:14;5.47;;;2.33;;
59271;SDS011;45043;51.068;7.026;2023-03-14T17:44:15;6.77;;;2.03;;
59271;SDS011;45043;51.068;7.026;2023-03-14T17:47:16;12.13;;;2.50;;
59271;SDS011;45043;51.068;7.026;2023-03-14T17:50:16;7.13;;;2.60;;
59271;SDS011;45043;51.068;7.026;2023-03-14T17:53:17;5.40;;;2.10;;
59271;SDS011;45043;51.068;7.026;2023-03-14T17:56:17;9.23;;;2.50;;
59271;SDS011;45043;51.068;7.026;2023-03-14T17:59:18;8.23;;;2.87;;
59271;SDS011;45043;51.068;7.026;2023-03-14T18:02:18;5.37;;;2.27;;
59271;SDS011;45043;51.068;7.026;2023-03-14T18:05:20;7.63;;;2.60;;
59271;SDS011;45043;51.068;7.026;2023-03-14T18:08:20;4.43;;;2.37;;
59271;SDS011;45043;51.068;7.026;2023-03-14T18:11:21;7.83;;;2.73;;
59271;SDS011;45043;51.068;7.026;2023-03-14T18:14:23;6.43;;;2.60;;
59271;SDS011;45043;51.068;7.026;2023-03-14T18:17:23;5.77;;;2.53;;
59271;SDS011;45043;51.068;7.026;2023-03-14T18:20:23;10.20;;;2.33;;
59271;SDS011;45043;51.068;7.026;2023-03-14T18:23:24;5.87;;;2.70;;
59271;SDS011;45043;51.068;7.026;2023-03-14T18:26:24;4.20;;;2.27;;
59271;SDS011;45043;51.068;7.026;2023-03-14T18:29:26;9.13;;;2.57;;
59271;SDS011;45043;51.068;7.026;2023-03-14T18:32:26;8.40;;;2.53;;
59271;SDS011;45043;51.068;7.026;2023-03-14T18:35:27;5.93;;;2.63;;
59271;SDS011;45043;51.068;7.026;2023-03-14T18:38:27;10.90;;;2.53;;
59271;SDS011;45043;51.068;7.026;2023-03-14T18:41:28;7.13;;;2.37;;
59271;SDS011;45043;51.068;7.026;2023-03-14T18:44:28;7.73;;;2.73;;
59271;SDS011;45043;51.068;7.026;2023-03-14T18:47:29;8.30;;;2.83;;
59271;SDS011;45043;51.068;7.026;2023-03-14T18:50:29;7.37;;;2.60;;
59271;SDS011;45043;51.068;7.026;2023-03-14T18:53:30;7.87;;;3.03;;
59271;SDS011;45043;51.068;7.026;2023-03-14T18:56:31;5.83;;;2.40;;
59271;SDS011;45043;51.068;7.026;2023-03-14T18:59:31;10.20;;;2.90;;
59271;SDS011;45043;51.068;7.026;2023-03-14T19:02:32;9.67;;;2.80;;
59271;SDS011;45043;51.068;7.026;2023-03-14T19:05:32;10.73;;;2.97;;
59271;SDS011;45043;51.068;7.026;2023-03-14T19:08:33;7.83;;;2.77;;
59271;SDS011;45043;51.068;7.026;2023-03-14T19:11:34;9.33;;;2.70;;
59271;SDS011;45043;51.068;7.026;2023-03-14T19:14:35;6.93;;;3.00;;
59271;SDS011;45043;51.068;7.026;2023-03-14T19:17:35;8.43;;;2.93;;
59271;SDS011;45043;51.068;7.026;2023-03-14T19:20:36;9.80;;;2.70;;